EFMA/MHQ METAR and TAF weather

Enter ICAO airport designator
Station Type Date Time Source
EFMA METAR 2019/12/13 22:20 UTC NOAA

EFMA 132220Z AUTO 13014G24KT 100V160 9999 -SHRA OVC009 04/02 Q0995


Station Type Date Time Source
EFMA Decoded METAR 2019/12/13 22:20 UTC NOAA

Mariehamn / Aland Island, Finland (EFMA) 60-07N 019-54E
Dec 13, 2019 - 05:20 PM EST / 2019.12.13 2220 UTC
Wind: from the SE (130 degrees) at 16 MPH (14 KT) gusting to 28 MPH (24 KT) (direction variable):0
Visibility: greater than 7 mile(s):0
Sky conditions: overcast
Weather: light rain showers
Temperature: 39 F (4 C)
Dew Point: 35 F (2 C)
Relative Humidity: 86%
Pressure (altimeter): 29.38 in. Hg (0995 hPa)
ob: EFMA 132220Z AUTO 13014G24KT 100V160 9999 -SHRA OVC009 04/02 Q0995
cycle: 22

Station Type Date Time Source
EFMA TAF 2014/05/01 21:18 UTC NOAA

TAF TAF EFMA 302037Z 3021/0106 08008KT CAVOK
TEMPO 3023/0101 02010KT 6000 RASN
BECMG 0101/0103 01012KT 4000 RASN BKN010 OVC025

Example: see airport list